Time;durP1;ratioP1;P1;durP2;ratioP2;P2;SDS_P1;SDS_P2;PMS_P1;PMS_P2;Temp;Humidity;BMP_temperature;BMP_pressure;BME280_temperature;BME280_humidity;BME280_pressure;Samples;Min_cycle;Max_cycle;Signal;HPM_P1;HPM_P2
2022/01/29 00:00:34;;;;;;;20.20;11.50;;;;;;;;;;4974521;28;20464;-48
2022/01/29 00:03:00;;;;;;;25.60;11.27;;;;;;;;;;4974658;28;20488;-48
2022/01/29 00:05:26;;;;;;;20.23;11.57;;;;;;;;;;4973707;28;20433;-50
2022/01/29 00:07:52;;;;;;;27.63;13.20;;;;;;;;;;4974771;28;20440;-50
2022/01/29 00:10:19;;;;;;;31.17;12.70;;;;;;;;;;4974523;28;20826;-48
2022/01/29 00:12:45;;;;;;;21.60;11.85;;;;;;;;;;4973723;28;20416;-48
2022/01/29 00:15:11;;;;;;;20.63;11.38;;;;;;;;;;4974560;28;20177;-49
2022/01/29 00:17:37;;;;;;;16.08;9.63;;;;;;;;;;4974842;28;20576;-48
2022/01/29 00:20:04;;;;;;;20.15;11.55;;;;;;;;;;5026259;23;20232;-49
2022/01/29 00:22:30;;;;;;;26.75;12.13;;;;;;;;;;4994372;28;20179;-49
2022/01/29 00:24:57;;;;;;;23.90;12.60;;;;;;;;;;4994325;28;20638;-49
2022/01/29 00:27:26;;;;;;;22.48;11.70;;;;;;;;;;4994529;28;20231;-49
2022/01/29 00:29:54;;;;;;;24.67;11.65;;;;;;;;;;4993677;28;20213;-49
2022/01/29 00:32:20;;;;;;;20.73;11.73;;;;;;;;;;4994300;28;20162;-49
2022/01/29 00:34:45;;;;;;;28.30;13.30;;;;;;;;;;4994260;28;20701;-48
2022/01/29 00:37:11;;;;;;;26.23;15.00;;;;;;;;;;4993006;28;20948;-48
2022/01/29 00:39:37;;;;;;;28.23;12.33;;;;;;;;;;4993799;28;20472;-50
2022/01/29 00:42:04;;;;;;;27.17;13.97;;;;;;;;;;4994180;28;20491;-50
2022/01/29 00:44:30;;;;;;;24.38;12.10;;;;;;;;;;4994346;28;20467;-49
2022/01/29 00:46:56;;;;;;;28.23;13.95;;;;;;;;;;4992641;28;20218;-49
2022/01/29 00:49:22;;;;;;;27.83;13.65;;;;;;;;;;4993963;28;20193;-50
2022/01/29 00:51:48;;;;;;;26.83;15.40;;;;;;;;;;4993933;28;20256;-49
2022/01/29 00:54:14;;;;;;;25.93;12.43;;;;;;;;;;4993937;28;20416;-49
2022/01/29 00:56:40;;;;;;;34.30;14.27;;;;;;;;;;4993719;28;20877;-49
2022/01/29 00:59:06;;;;;;;31.07;15.67;;;;;;;;;;4993133;28;20464;-51
2022/01/29 01:01:35;;;;;;;30.67;15.63;;;;;;;;;;4993665;28;20405;-50
2022/01/29 01:04:02;;;;;;;32.92;15.30;;;;;;;;;;4993676;28;20900;-49
2022/01/29 01:06:29;;;;;;;42.87;17.17;;;;;;;;;;4992488;28;20181;-50
2022/01/29 01:08:55;;;;;;;23.90;14.40;;;;;;;;;;4993310;28;20635;-50
2022/01/29 01:11:21;;;;;;;24.63;14.87;;;;;;;;;;4993554;28;20551;-49
2022/01/29 01:13:47;;;;;;;34.13;14.83;;;;;;;;;;4993417;28;20408;-49
2022/01/29 01:16:13;;;;;;;32.63;16.03;;;;;;;;;;4993874;28;20405;-50
2022/01/29 01:18:39;;;;;;;30.03;13.20;;;;;;;;;;4993354;28;20440;-49
2022/01/29 01:21:05;;;;;;;30.67;14.57;;;;;;;;;;4993021;28;20993;-49
2022/01/29 01:23:31;;;;;;;30.70;15.87;;;;;;;;;;4993151;28;20757;-49
2022/01/29 01:25:58;;;;;;;35.27;17.23;;;;;;;;;;4993251;28;20467;-50
2022/01/29 01:28:24;;;;;;;33.67;18.38;;;;;;;;;;4992719;28;20487;-49
2022/01/29 01:30:51;;;;;;;30.90;16.67;;;;;;;;;;4993118;28;20260;-50
2022/01/29 01:33:17;;;;;;;36.33;16.83;;;;;;;;;;4993244;28;20412;-50
2022/01/29 01:35:48;;;;;;;30.63;15.95;;;;;;;;;;4993215;28;20204;-50
2022/01/29 01:38:24;;;;;;;32.58;16.80;;;;;;;;;;4992155;28;20184;-48
2022/01/29 01:40:57;;;;;;;30.75;14.90;;;;;;;;;;4992952;28;20256;-50
2022/01/29 01:43:23;;;;;;;32.03;15.10;;;;;;;;;;4992942;28;20236;-50
2022/01/29 01:45:49;;;;;;;33.70;16.10;;;;;;;;;;4993051;28;20703;-50
2022/01/29 01:48:15;;;;;;;36.67;16.60;;;;;;;;;;4992801;28;20738;-48
2022/01/29 01:50:41;;;;;;;31.63;16.90;;;;;;;;;;4992697;28;20463;-49
2022/01/29 01:53:07;;;;;;;33.57;16.57;;;;;;;;;;4992605;28;20416;-51
2022/01/29 01:55:34;;;;;;;28.08;15.05;;;;;;;;;;4992768;28;20443;-50
2022/01/29 01:58:00;;;;;;;35.33;15.83;;;;;;;;;;4992881;28;20645;-49
2022/01/29 02:00:29;;;;;;;29.70;16.23;;;;;;;;;;4992811;28;20460;-49
2022/01/29 02:02:55;;;;;;;31.77;17.45;;;;;;;;;;4992276;28;20165;-50
2022/01/29 02:05:22;;;;;;;38.45;16.75;;;;;;;;;;4992054;28;20204;-49
2022/01/29 02:07:48;;;;;;;33.28;16.80;;;;;;;;;;4991733;28;20743;-49
2022/01/29 02:10:14;;;;;;;36.47;18.88;;;;;;;;;;4992682;28;20189;-50
2022/01/29 02:12:47;;;;;;;32.35;17.05;;;;;;;;;;4992468;28;20195;-50
2022/01/29 02:15:15;;;;;;;30.40;17.63;;;;;;;;;;4992896;28;20296;-49
2022/01/29 02:17:41;;;;;;;34.40;18.10;;;;;;;;;;4992582;28;20168;-50
2022/01/29 02:20:07;;;;;;;27.00;14.60;;;;;;;;;;4991447;28;20583;-50
2022/01/29 02:22:33;;;;;;;45.88;17.70;;;;;;;;;;4992361;28;20392;-50
2022/01/29 02:24:59;;;;;;;37.00;15.43;;;;;;;;;;4992588;28;20229;-49
2022/01/29 02:27:25;;;;;;;33.80;17.20;;;;;;;;;;4992191;28;20401;-49
2022/01/29 02:29:51;;;;;;;38.73;17.53;;;;;;;;;;4992323;28;20424;-50
2022/01/29 02:32:18;;;;;;;29.07;16.27;;;;;;;;;;4992081;28;20405;-50
2022/01/29 02:34:44;;;;;;;33.60;17.37;;;;;;;;;;4992116;28;20410;-50
2022/01/29 02:37:11;;;;;;;36.00;17.97;;;;;;;;;;4991314;28;20804;-49
2022/01/29 02:39:37;;;;;;;37.50;18.50;;;;;;;;;;4991255;28;20475;-50
2022/01/29 02:42:03;;;;;;;33.30;15.70;;;;;;;;;;4992180;28;20408;-50
2022/01/29 02:44:30;;;;;;;45.20;18.00;;;;;;;;;;4992339;28;20169;-50
2022/01/29 02:47:13;;;;;;;35.67;17.73;;;;;;;;;;4991425;28;20420;-50
2022/01/29 02:49:40;;;;;;;35.90;17.70;;;;;;;;;;4992171;28;20188;-50
2022/01/29 02:52:08;;;;;;;38.03;18.67;;;;;;;;;;4992115;28;20185;-49
2022/01/29 02:54:35;;;;;;;31.02;16.77;;;;;;;;;;4990533;28;20178;-50
2022/01/29 02:57:01;;;;;;;33.83;17.17;;;;;;;;;;4991808;28;20182;-49
2022/01/29 02:59:27;;;;;;;30.63;16.77;;;;;;;;;;4991972;28;20196;-50
2022/01/29 03:01:52;;;;;;;31.77;17.77;;;;;;;;;;4992226;28;20506;-49
2022/01/29 03:04:18;;;;;;;35.17;17.90;;;;;;;;;;4992335;28;20400;-50
2022/01/29 03:06:44;;;;;;;30.37;17.17;;;;;;;;;;4992082;28;20916;-49
2022/01/29 03:09:11;;;;;;;27.08;14.70;;;;;;;;;;4991356;28;20508;-50
2022/01/29 03:11:36;;;;;;;34.03;16.25;;;;;;;;;;4991722;28;20689;-49
2022/01/29 03:14:02;;;;;;;32.90;17.10;;;;;;;;;;4991370;28;20189;-49
2022/01/29 03:16:28;;;;;;;41.30;18.13;;;;;;;;;;4991638;28;20494;-49
2022/01/29 03:18:54;;;;;;;34.03;17.80;;;;;;;;;;4991696;28;20451;-49
2022/01/29 03:21:20;;;;;;;33.30;17.13;;;;;;;;;;4991762;28;20402;-50
2022/01/29 03:23:46;;;;;;;44.50;18.73;;;;;;;;;;4991720;28;20401;-50
2022/01/29 03:26:12;;;;;;;33.07;15.40;;;;;;;;;;4991966;28;20843;-50
2022/01/29 03:28:38;;;;;;;33.13;17.07;;;;;;;;;;4991298;28;20487;-49
2022/01/29 03:31:04;;;;;;;36.72;17.92;;;;;;;;;;4991012;28;20405;-48
2022/01/29 03:33:30;;;;;;;29.27;16.98;;;;;;;;;;4991262;28;20209;-50
2022/01/29 03:35:56;;;;;;;28.87;17.57;;;;;;;;;;4992246;28;20212;-50
2022/01/29 03:38:23;;;;;;;32.58;17.02;;;;;;;;;;4995558;28;20420;-50
2022/01/29 03:40:50;;;;;;;38.03;18.92;;;;;;;;;;4991382;28;20291;-50
2022/01/29 03:43:25;;;;;;;32.25;16.02;;;;;;;;;;4991093;28;20177;-49
2022/01/29 03:45:51;;;;;;;35.72;18.05;;;;;;;;;;4990558;28;20533;-50
2022/01/29 03:48:17;;;;;;;41.90;17.10;;;;;;;;;;4992379;28;20188;-49
2022/01/29 03:50:43;;;;;;;31.73;16.90;;;;;;;;;;4989131;28;20189;-50
2022/01/29 03:53:09;;;;;;;37.47;19.83;;;;;;;;;;4989865;28;20488;-50
2022/01/29 03:55:35;;;;;;;34.07;18.27;;;;;;;;;;4990049;28;20431;-50
2022/01/29 03:58:02;;;;;;;26.43;15.03;;;;;;;;;;4991234;28;20566;-49
2022/01/29 04:00:28;;;;;;;34.50;17.00;;;;;;;;;;4989515;28;20474;-50
2022/01/29 04:02:59;;;;;;;29.20;14.50;;;;;;;;;;4989905;28;20177;-51
2022/01/29 04:05:26;;;;;;;29.63;14.43;;;;;;;;;;4990846;28;20938;-49
2022/01/29 04:07:52;;;;;;;30.13;16.45;;;;;;;;;;4993071;28;20188;-50
2022/01/29 04:10:20;;;;;;;27.52;16.08;;;;;;;;;;4994450;28;20196;-49
2022/01/29 04:12:50;;;;;;;34.75;16.77;;;;;;;;;;4994654;28;20436;-49
2022/01/29 04:15:16;;;;;;;33.65;15.18;;;;;;;;;;4994835;28;20188;-50
2022/01/29 04:17:42;;;;;;;28.90;15.93;;;;;;;;;;4994734;28;20629;-50
2022/01/29 04:20:08;;;;;;;22.37;13.60;;;;;;;;;;4994291;28;20522;-50
2022/01/29 04:22:37;;;;;;;30.67;15.30;;;;;;;;;;4994392;28;20443;-49
2022/01/29 04:25:03;;;;;;;28.85;15.48;;;;;;;;;;4994566;28;20180;-51
2022/01/29 04:27:45;;;;;;;27.77;14.30;;;;;;;;;;4994502;28;20230;-50
2022/01/29 04:35:19;;;;;;;26.93;13.70;;;;;;;;;;4994976;28;20594;-50
2022/01/29 04:37:45;;;;;;;26.80;14.30;;;;;;;;;;4994301;28;20416;-50
2022/01/29 04:40:11;;;;;;;28.07;15.13;;;;;;;;;;4994084;28;20518;-49
2022/01/29 04:42:37;;;;;;;28.73;13.63;;;;;;;;;;4994193;28;20407;-49
2022/01/29 04:45:03;;;;;;;26.50;14.53;;;;;;;;;;4994566;28;20166;-50
2022/01/29 04:47:29;;;;;;;22.92;12.38;;;;;;;;;;4993594;28;20402;-50
2022/01/29 04:49:55;;;;;;;26.17;14.30;;;;;;;;;;4993979;28;20750;-50
2022/01/29 04:52:21;;;;;;;28.13;15.20;;;;;;;;;;4994096;28;20408;-51
2022/01/29 04:54:47;;;;;;;25.90;13.83;;;;;;;;;;4993492;28;20807;-50
2022/01/29 04:57:13;;;;;;;25.97;12.10;;;;;;;;;;4994304;28;20400;-50
2022/01/29 04:59:39;;;;;;;21.90;11.97;;;;;;;;;;4994091;28;20860;-49
2022/01/29 05:02:05;;;;;;;20.30;11.90;;;;;;;;;;4994274;28;20488;-49
2022/01/29 05:04:31;;;;;;;27.37;13.73;;;;;;;;;;4994225;28;20766;-50
2022/01/29 05:06:57;;;;;;;24.00;12.63;;;;;;;;;;4994086;28;20763;-50
2022/01/29 05:09:24;;;;;;;11.63;8.27;;;;;;;;;;4993567;28;20464;-50
2022/01/29 05:11:52;;;;;;;19.95;11.68;;;;;;;;;;4993630;28;20412;-50
2022/01/29 05:28:22;;;;;;;17.40;10.20;;;;;;;;;;4993793;28;20189;-50
2022/01/29 05:30:48;;;;;;;20.87;9.73;;;;;;;;;;4993230;28;20581;-50
2022/01/29 05:33:14;;;;;;;15.90;9.57;;;;;;;;;;4993572;28;20835;-50
2022/01/29 05:35:40;;;;;;;14.77;8.80;;;;;;;;;;4993230;28;20898;-50
2022/01/29 05:38:06;;;;;;;16.27;9.13;;;;;;;;;;4993572;28;20766;-50
2022/01/29 05:40:32;;;;;;;20.87;9.93;;;;;;;;;;4992949;28;20547;-50
2022/01/29 05:42:58;;;;;;;15.13;8.50;;;;;;;;;;4993041;28;20413;-50
2022/01/29 05:45:24;;;;;;;14.30;8.17;;;;;;;;;;4993306;28;20491;-50
2022/01/29 05:47:50;;;;;;;18.50;9.03;;;;;;;;;;4993023;28;20416;-50
2022/01/29 05:50:16;;;;;;;14.43;9.07;;;;;;;;;;4992932;28;20795;-49
2022/01/29 05:52:42;;;;;;;15.83;9.60;;;;;;;;;;4991903;28;20496;-50
2022/01/29 05:55:08;;;;;;;18.70;10.30;;;;;;;;;;4993457;28;20411;-50
2022/01/29 05:57:34;;;;;;;19.33;9.90;;;;;;;;;;4993083;28;20460;-50
2022/01/29 06:00:00;;;;;;;16.07;9.80;;;;;;;;;;4992507;28;20484;-49
2022/01/29 06:02:26;;;;;;;12.57;8.40;;;;;;;;;;4992953;28;20435;-50
2022/01/29 06:04:52;;;;;;;17.57;10.17;;;;;;;;;;4993124;28;20407;-50
2022/01/29 06:07:18;;;;;;;13.40;8.67;;;;;;;;;;4992838;28;20408;-50
2022/01/29 06:09:45;;;;;;;23.53;12.97;;;;;;;;;;4992477;28;20432;-50
2022/01/29 06:12:11;;;;;;;17.77;10.88;;;;;;;;;;4993302;28;20895;-49
2022/01/29 06:14:37;;;;;;;24.70;11.68;;;;;;;;;;4993245;28;20252;-49
2022/01/29 06:17:03;;;;;;;21.63;11.20;;;;;;;;;;4992925;28;20228;-50
2022/01/29 06:19:29;;;;;;;17.50;10.45;;;;;;;;;;4993120;28;20951;-48
2022/01/29 06:21:55;;;;;;;17.80;11.47;;;;;;;;;;4992320;28;20211;-48
2022/01/29 06:24:22;;;;;;;25.58;13.57;;;;;;;;;;4992386;28;20481;-48
2022/01/29 06:26:48;;;;;;;27.02;11.52;;;;;;;;;;4992483;28;20651;-48
2022/01/29 06:29:13;;;;;;;21.17;12.13;;;;;;;;;;4991670;28;20190;-49
2022/01/29 06:31:39;;;;;;;28.63;13.40;;;;;;;;;;4992015;28;20240;-48
2022/01/29 06:34:05;;;;;;;26.80;13.57;;;;;;;;;;4991825;28;20637;-49
2022/01/29 06:36:31;;;;;;;22.93;11.30;;;;;;;;;;4992187;28;20415;-50
2022/01/29 06:38:57;;;;;;;26.57;14.00;;;;;;;;;;4991560;28;20526;-50
2022/01/29 06:41:23;;;;;;;21.80;13.70;;;;;;;;;;4992231;28;20444;-50
2022/01/29 06:43:49;;;;;;;22.63;13.00;;;;;;;;;;4992050;28;20494;-49
2022/01/29 06:46:15;;;;;;;22.53;13.27;;;;;;;;;;4992006;28;20405;-50
2022/01/29 06:48:41;;;;;;;24.13;12.80;;;;;;;;;;4991795;28;20910;-50
2022/01/29 06:51:07;;;;;;;26.80;12.60;;;;;;;;;;4991661;28;20409;-50
2022/01/29 06:53:33;;;;;;;26.27;15.27;;;;;;;;;;4991867;28;20475;-50
2022/01/29 06:55:59;;;;;;;25.60;14.27;;;;;;;;;;4991833;28;20417;-48
2022/01/29 06:58:25;;;;;;;26.00;14.93;;;;;;;;;;4991976;28;20412;-50
2022/01/29 07:00:51;;;;;;;25.07;13.23;;;;;;;;;;4991535;28;20456;-50
2022/01/29 07:03:20;;;;;;;30.40;13.57;;;;;;;;;;4991958;28;20479;-50
2022/01/29 07:05:48;;;;;;;26.10;14.40;;;;;;;;;;4991695;28;20922;-50
2022/01/29 07:08:14;;;;;;;28.27;14.38;;;;;;;;;;4991994;28;20157;-48
2022/01/29 07:10:40;;;;;;;26.83;13.80;;;;;;;;;;4992109;28;20181;-50
2022/01/29 07:13:06;;;;;;;23.97;12.80;;;;;;;;;;4995959;28;20481;-51
2022/01/29 07:15:38;;;;;;;25.98;14.10;;;;;;;;;;4996260;28;20404;-49
2022/01/29 07:18:04;;;;;;;24.13;13.63;;;;;;;;;;4996326;28;20182;-52
2022/01/29 07:20:30;;;;;;;23.43;13.57;;;;;;;;;;4995917;28;20464;-51
2022/01/29 07:22:56;;;;;;;24.30;14.87;;;;;;;;;;4995771;28;20876;-51
2022/01/29 07:25:22;;;;;;;26.57;15.43;;;;;;;;;;4996294;28;20772;-50
2022/01/29 07:27:48;;;;;;;31.33;15.67;;;;;;;;;;4996088;28;20409;-49
2022/01/29 07:30:14;;;;;;;26.57;15.10;;;;;;;;;;4995888;28;20449;-50
2022/01/29 07:32:44;;;;;;;27.77;15.03;;;;;;;;;;4996056;28;20437;-50
2022/01/29 07:35:10;;;;;;;26.15;15.80;;;;;;;;;;4996256;28;20408;-50
2022/01/29 07:37:36;;;;;;;25.57;14.50;;;;;;;;;;4995863;28;20181;-50
2022/01/29 07:40:02;;;;;;;32.13;15.90;;;;;;;;;;4995546;28;20563;-50
2022/01/29 07:42:27;;;;;;;27.87;15.67;;;;;;;;;;4995389;28;20404;-49
2022/01/29 07:44:53;;;;;;;25.87;16.07;;;;;;;;;;4995693;28;20409;-49
2022/01/29 07:47:19;;;;;;;32.63;15.73;;;;;;;;;;4995740;28;20495;-49
2022/01/29 07:49:45;;;;;;;25.00;15.13;;;;;;;;;;4995838;28;20429;-49
2022/01/29 07:52:11;;;;;;;32.17;18.37;;;;;;;;;;4995527;28;20413;-49
2022/01/29 07:54:37;;;;;;;27.30;13.40;;;;;;;;;;4995406;28;20435;-49
2022/01/29 07:57:03;;;;;;;30.27;16.07;;;;;;;;;;4995122;28;20447;-50
2022/01/29 07:59:29;;;;;;;31.70;16.63;;;;;;;;;;4994900;28;20821;-51
2022/01/29 08:01:55;;;;;;;28.60;16.70;;;;;;;;;;4995284;28;20401;-50
2022/01/29 08:04:24;;;;;;;29.53;17.47;;;;;;;;;;4995766;28;20404;-49
2022/01/29 08:06:50;;;;;;;23.03;14.63;;;;;;;;;;4995310;28;20427;-49
2022/01/29 08:09:16;;;;;;;25.70;14.20;;;;;;;;;;4995211;28;20896;-50
2022/01/29 08:11:42;;;;;;;30.80;16.80;;;;;;;;;;4995497;28;20404;-48
2022/01/29 08:14:09;;;;;;;27.87;15.67;;;;;;;;;;4995348;28;20905;-50
2022/01/29 08:16:35;;;;;;;33.93;17.33;;;;;;;;;;4995167;28;20414;-50
2022/01/29 08:19:01;;;;;;;32.50;18.20;;;;;;;;;;4994862;28;20459;-50
2022/01/29 08:21:27;;;;;;;27.60;16.33;;;;;;;;;;4995446;28;20415;-49
2022/01/29 08:23:53;;;;;;;34.87;17.40;;;;;;;;;;4995103;28;20886;-50
2022/01/29 08:26:19;;;;;;;28.37;16.77;;;;;;;;;;4995312;28;20402;-49
2022/01/29 08:28:45;;;;;;;30.37;16.20;;;;;;;;;;4995308;28;20929;-50
2022/01/29 08:31:11;;;;;;;29.93;17.23;;;;;;;;;;4995421;28;20420;-49
2022/01/29 08:33:37;;;;;;;27.70;15.40;;;;;;;;;;4995490;28;20402;-48
2022/01/29 08:36:04;;;;;;;35.97;16.60;;;;;;;;;;4995080;28;20540;-50
2022/01/29 08:38:30;;;;;;;28.07;16.10;;;;;;;;;;4995314;28;20504;-50
2022/01/29 08:40:56;;;;;;;24.70;15.33;;;;;;;;;;4994977;28;21076;-51
2022/01/29 08:43:25;;;;;;;31.17;18.27;;;;;;;;;;4995303;28;20441;-50
2022/01/29 08:45:51;;;;;;;32.03;17.73;;;;;;;;;;4995321;28;20405;-49
2022/01/29 08:48:18;;;;;;;27.20;16.00;;;;;;;;;;4994774;28;20402;-48
2022/01/29 08:50:44;;;;;;;31.47;17.70;;;;;;;;;;4994409;28;20414;-50
2022/01/29 08:53:10;;;;;;;25.87;15.73;;;;;;;;;;4994917;28;20812;-50
2022/01/29 08:55:37;;;;;;;30.10;17.13;;;;;;;;;;4994722;28;20916;-50
2022/01/29 08:58:07;;;;;;;34.93;17.70;;;;;;;;;;4995096;28;20468;-50
2022/01/29 09:00:33;;;;;;;27.90;17.80;;;;;;;;;;4994426;28;20488;-50
2022/01/29 09:02:59;;;;;;;30.47;17.87;;;;;;;;;;4994860;28;20407;-49
2022/01/29 09:05:25;;;;;;;28.47;16.50;;;;;;;;;;4994615;28;20450;-48
2022/01/29 09:07:51;;;;;;;29.67;15.33;;;;;;;;;;4997784;28;20786;-50
2022/01/29 09:10:17;;;;;;;30.87;17.30;;;;;;;;;;4994785;28;20438;-50
2022/01/29 09:12:43;;;;;;;31.53;17.77;;;;;;;;;;4995009;28;20931;-49
2022/01/29 09:15:10;;;;;;;28.30;16.53;;;;;;;;;;4994930;28;20410;-49
2022/01/29 09:17:39;;;;;;;27.83;16.47;;;;;;;;;;4995068;28;20769;-49
2022/01/29 09:20:05;;;;;;;30.87;16.60;;;;;;;;;;4994606;28;20462;-50
2022/01/29 09:22:31;;;;;;;32.17;18.40;;;;;;;;;;4994355;28;20414;-49
2022/01/29 09:24:57;;;;;;;24.43;14.60;;;;;;;;;;4994614;28;20413;-49
2022/01/29 09:27:23;;;;;;;28.83;17.83;;;;;;;;;;4994646;28;20414;-49
2022/01/29 09:29:49;;;;;;;26.83;15.40;;;;;;;;;;4994561;28;20487;-48
2022/01/29 09:32:15;;;;;;;26.73;16.43;;;;;;;;;;4994778;28;20417;-48
2022/01/29 09:34:41;;;;;;;31.60;17.67;;;;;;;;;;4993971;28;20488;-51
2022/01/29 09:37:07;;;;;;;23.60;15.50;;;;;;;;;;4994099;28;20407;-50
2022/01/29 09:39:33;;;;;;;25.73;15.10;;;;;;;;;;4994133;28;20461;-50
2022/01/29 09:42:00;;;;;;;22.63;14.67;;;;;;;;;;4994527;28;20425;-50
2022/01/29 09:44:26;;;;;;;23.50;14.80;;;;;;;;;;4994286;28;20413;-50
2022/01/29 09:46:53;;;;;;;25.03;13.70;;;;;;;;;;4994600;28;20404;-50
2022/01/29 09:49:19;;;;;;;25.03;15.07;;;;;;;;;;4994045;28;20433;-50
2022/01/29 09:51:45;;;;;;;26.40;14.57;;;;;;;;;;4994381;28;20405;-49
2022/01/29 09:54:11;;;;;;;23.43;14.57;;;;;;;;;;4994710;28;20413;-50
2022/01/29 09:56:37;;;;;;;25.97;14.50;;;;;;;;;;4994511;28;20425;-51
2022/01/29 09:59:04;;;;;;;18.87;13.80;;;;;;;;;;4993922;28;20909;-51
2022/01/29 10:01:30;;;;;;;22.20;15.27;;;;;;;;;;4994284;28;20417;-49
2022/01/29 10:04:00;;;;;;;25.77;13.57;;;;;;;;;;4994365;28;20413;-51
2022/01/29 10:06:26;;;;;;;18.97;12.93;;;;;;;;;;4994145;28;20493;-51
2022/01/29 10:08:52;;;;;;;19.70;13.17;;;;;;;;;;4994289;28;20520;-49
2022/01/29 10:11:19;;;;;;;21.17;14.20;;;;;;;;;;4993859;28;20461;-50
2022/01/29 10:13:45;;;;;;;19.50;13.67;;;;;;;;;;4993866;28;20478;-49
2022/01/29 10:16:14;;;;;;;20.40;13.87;;;;;;;;;;4994036;28;20897;-50
2022/01/29 10:18:41;;;;;;;21.13;13.53;;;;;;;;;;4993751;28;20453;-50
2022/01/29 10:21:13;;;;;;;23.07;14.00;;;;;;;;;;4993464;28;20466;-49
2022/01/29 10:23:40;;;;;;;21.53;13.50;;;;;;;;;;4994214;28;20402;-51
2022/01/29 10:26:07;;;;;;;27.43;14.07;;;;;;;;;;4994200;28;20421;-48
2022/01/29 10:28:33;;;;;;;24.60;15.20;;;;;;;;;;4993751;28;20417;-50
2022/01/29 10:31:03;;;;;;;21.80;14.10;;;;;;;;;;4993579;28;20410;-51
2022/01/29 10:33:29;;;;;;;25.33;15.03;;;;;;;;;;4994161;28;20882;-50
2022/01/29 10:35:55;;;;;;;19.67;13.70;;;;;;;;;;4994034;28;20405;-50
2022/01/29 10:38:40;;;;;;;21.00;15.57;;;;;;;;;;4993813;28;20442;-49
2022/01/29 10:41:10;;;;;;;21.40;13.90;;;;;;;;;;4993531;28;20823;-49
2022/01/29 10:43:37;;;;;;;24.13;14.47;;;;;;;;;;4993215;28;20404;-50
2022/01/29 10:46:03;;;;;;;22.67;14.30;;;;;;;;;;4994137;28;20433;-50
2022/01/29 10:48:43;;;;;;;24.67;14.90;;;;;;;;;;4997542;28;20445;-50
2022/01/29 10:51:09;;;;;;;20.07;13.77;;;;;;;;;;4998324;28;20414;-50
2022/01/29 10:53:35;;;;;;;20.13;13.40;;;;;;;;;;4997483;28;20473;-51
2022/01/29 10:56:03;;;;;;;20.90;14.47;;;;;;;;;;4997747;28;20416;-51
2022/01/29 10:58:29;;;;;;;20.07;14.37;;;;;;;;;;4997506;28;20407;-50
2022/01/29 11:01:14;;;;;;;19.90;13.17;;;;;;;;;;4997337;28;20454;-50
2022/01/29 11:03:41;;;;;;;20.90;11.70;;;;;;;;;;4997142;28;20406;-51
2022/01/29 11:06:11;;;;;;;23.83;13.83;;;;;;;;;;4997507;28;20498;-51
2022/01/29 11:08:40;;;;;;;22.30;14.10;;;;;;;;;;4997463;28;20898;-50
2022/01/29 11:11:09;;;;;;;18.37;12.13;;;;;;;;;;4997666;28;20469;-49
2022/01/29 11:13:35;;;;;;;14.97;11.17;;;;;;;;;;4996387;28;20953;-51
2022/01/29 11:16:02;;;;;;;24.00;13.90;;;;;;;;;;4996138;28;20430;-50
2022/01/29 11:18:28;;;;;;;18.17;11.83;;;;;;;;;;4995711;28;20439;-50
2022/01/29 11:20:56;;;;;;;19.53;11.70;;;;;;;;;;4995371;28;20479;-50
2022/01/29 11:23:23;;;;;;;17.07;12.10;;;;;;;;;;4995143;28;20466;-50
2022/01/29 11:25:52;;;;;;;18.87;11.73;;;;;;;;;;4995187;28;20411;-50
2022/01/29 11:28:18;;;;;;;18.10;10.87;;;;;;;;;;4995351;28;20408;-49
2022/01/29 11:30:45;;;;;;;17.50;10.33;;;;;;;;;;4995004;28;20419;-49
2022/01/29 11:33:12;;;;;;;15.00;10.00;;;;;;;;;;4995155;28;20449;-50
2022/01/29 11:35:51;;;;;;;14.23;10.43;;;;;;;;;;4994940;28;20442;-51
2022/01/29 11:38:27;;;;;;;14.97;9.77;;;;;;;;;;4995032;28;20850;-48
2022/01/29 11:40:58;;;;;;;15.23;8.93;;;;;;;;;;4994402;28;20969;-51
2022/01/29 11:43:25;;;;;;;14.07;9.33;;;;;;;;;;4994626;28;20945;-50
2022/01/29 11:48:32;;;;;;;12.63;9.37;;;;;;;;;;4994848;28;20908;-50
2022/01/29 11:50:59;;;;;;;11.73;8.63;;;;;;;;;;4994409;28;20755;-49
2022/01/29 11:53:26;;;;;;;12.83;8.30;;;;;;;;;;4994331;28;20871;-50
2022/01/29 11:55:55;;;;;;;13.13;8.07;;;;;;;;;;4994721;28;20462;-50
2022/01/29 11:58:21;;;;;;;16.53;7.90;;;;;;;;;;4994024;28;20491;-50
2022/01/29 12:00:48;;;;;;;10.33;8.67;;;;;;;;;;4994387;28;20543;-50
2022/01/29 12:03:44;;;;;;;12.00;8.10;;;;;;;;;;4994322;28;20419;-50
2022/01/29 12:09:06;;;;;;;10.80;7.40;;;;;;;;;;4994322;28;20506;-50
2022/01/29 12:11:33;;;;;;;11.50;7.60;;;;;;;;;;4994391;28;20825;-50
2022/01/29 12:14:14;;;;;;;9.97;8.00;;;;;;;;;;4994138;28;20396;-50
2022/01/29 12:16:49;;;;;;;14.20;8.00;;;;;;;;;;4994103;28;20402;-50
2022/01/29 12:19:33;;;;;;;8.60;6.63;;;;;;;;;;5025442;23;20595;-50
2022/01/29 12:22:00;;;;;;;8.27;7.30;;;;;;;;;;4974654;28;20421;-50
2022/01/29 12:24:26;;;;;;;10.23;6.47;;;;;;;;;;4974316;28;20450;-51
2022/01/29 12:26:58;;;;;;;7.53;6.27;;;;;;;;;;4973904;28;20432;-51
2022/01/29 12:29:24;;;;;;;10.17;7.13;;;;;;;;;;4974198;28;20421;-50
2022/01/29 12:31:52;;;;;;;8.00;6.70;;;;;;;;;;4974186;28;20773;-51
2022/01/29 12:34:20;;;;;;;6.70;5.03;;;;;;;;;;4973568;28;20401;-51
2022/01/29 12:36:46;;;;;;;6.77;5.40;;;;;;;;;;4974273;28;20455;-52
2022/01/29 12:39:20;;;;;;;6.03;5.10;;;;;;;;;;4973854;28;20797;-52
2022/01/29 12:41:48;;;;;;;5.10;4.70;;;;;;;;;;4973824;28;20393;-52
2022/01/29 12:44:18;;;;;;;5.43;4.80;;;;;;;;;;4974115;28;20471;-51
2022/01/29 12:46:46;;;;;;;6.00;5.40;;;;;;;;;;4973852;28;20396;-51
2022/01/29 12:49:13;;;;;;;5.10;4.60;;;;;;;;;;4973771;28;20537;-51
2022/01/29 12:51:52;;;;;;;5.07;4.27;;;;;;;;;;4974006;28;20399;-51
2022/01/29 12:54:19;;;;;;;6.57;4.70;;;;;;;;;;4973918;28;20487;-51
2022/01/29 12:56:45;;;;;;;5.00;4.53;;;;;;;;;;4973832;28;20401;-51
2022/01/29 12:59:11;;;;;;;5.10;4.60;;;;;;;;;;4973520;28;20399;-51
2022/01/29 13:01:38;;;;;;;6.00;4.73;;;;;;;;;;4973801;28;20977;-51
2022/01/29 13:04:06;;;;;;;4.90;4.40;;;;;;;;;;4973789;28;20402;-52
2022/01/29 13:06:32;;;;;;;5.20;4.40;;;;;;;;;;4973635;28;20485;-51
2022/01/29 13:09:11;;;;;;;5.40;4.50;;;;;;;;;;4972556;28;20416;-51
2022/01/29 13:11:37;;;;;;;5.37;4.87;;;;;;;;;;4973721;28;20406;-52
2022/01/29 13:14:16;;;;;;;4.80;4.40;;;;;;;;;;4973707;28;20416;-50
2022/01/29 13:16:43;;;;;;;6.07;5.27;;;;;;;;;;4973495;28;20411;-51
2022/01/29 13:19:09;;;;;;;5.93;5.33;;;;;;;;;;4973006;28;20441;-50
2022/01/29 13:21:35;;;;;;;5.20;4.70;;;;;;;;;;4973339;28;20409;-51
2022/01/29 13:24:22;;;;;;;4.80;4.40;;;;;;;;;;4977749;28;21123;-52
2022/01/29 13:27:09;;;;;;;4.97;4.47;;;;;;;;;;4976721;28;20403;-52
2022/01/29 13:29:36;;;;;;;6.10;5.20;;;;;;;;;;4978707;28;20432;-52
2022/01/29 13:32:03;;;;;;;7.20;5.10;;;;;;;;;;4980574;28;20467;-52
2022/01/29 13:34:30;;;;;;;5.77;4.63;;;;;;;;;;4982562;28;20403;-52
2022/01/29 13:36:56;;;;;;;5.93;5.43;;;;;;;;;;4981325;28;20985;-52
2022/01/29 13:39:25;;;;;;;5.27;4.87;;;;;;;;;;4982818;28;20908;-52
2022/01/29 13:42:11;;;;;;;5.63;4.97;;;;;;;;;;4982947;28;20432;-53
2022/01/29 13:44:37;;;;;;;4.70;4.20;;;;;;;;;;4982479;28;20404;-53
2022/01/29 13:47:09;;;;;;;7.03;5.13;;;;;;;;;;4982799;28;20400;-53
2022/01/29 13:49:36;;;;;;;5.10;4.50;;;;;;;;;;4983142;28;20435;-52
2022/01/29 13:52:12;;;;;;;5.13;4.67;;;;;;;;;;4982590;28;20415;-52
2022/01/29 13:54:38;;;;;;;5.57;4.97;;;;;;;;;;4982457;28;20404;-52
2022/01/29 13:57:08;;;;;;;5.07;4.67;;;;;;;;;;4981878;28;20409;-53
2022/01/29 13:59:37;;;;;;;6.00;5.40;;;;;;;;;;4982109;28;20492;-53
2022/01/29 14:02:04;;;;;;;6.70;4.50;;;;;;;;;;4982513;28;20416;-53
2022/01/29 14:04:36;;;;;;;4.97;4.40;;;;;;;;;;4982226;28;20416;-53
2022/01/29 14:07:11;;;;;;;5.30;4.90;;;;;;;;;;4981971;28;20401;-52
2022/01/29 14:09:44;;;;;;;4.70;4.30;;;;;;;;;;4982101;28;20837;-53
2022/01/29 14:12:10;;;;;;;5.27;4.20;;;;;;;;;;4982364;28;20413;-53
2022/01/29 14:14:43;;;;;;;6.77;4.80;;;;;;;;;;4982928;28;20912;-52
2022/01/29 14:17:28;;;;;;;4.70;4.30;;;;;;;;;;4982448;28;20954;-53
2022/01/29 14:19:56;;;;;;;5.50;5.10;;;;;;;;;;4981801;28;20465;-53
2022/01/29 14:22:23;;;;;;;5.57;3.90;;;;;;;;;;4981689;28;20409;-53
2022/01/29 14:24:50;;;;;;;6.27;4.37;;;;;;;;;;4980134;28;20471;-53
2022/01/29 14:27:16;;;;;;;6.80;4.67;;;;;;;;;;4981745;28;20409;-53
2022/01/29 14:29:43;;;;;;;5.30;4.33;;;;;;;;;;4982126;28;20527;-52
2022/01/29 14:32:10;;;;;;;6.37;4.27;;;;;;;;;;4980450;28;20777;-53
2022/01/29 14:34:36;;;;;;;4.63;3.37;;;;;;;;;;4982030;28;20432;-53
2022/01/29 14:37:02;;;;;;;5.23;3.90;;;;;;;;;;4980144;28;20480;-53
2022/01/29 14:39:29;;;;;;;5.00;4.60;;;;;;;;;;4980595;28;20493;-53
2022/01/29 14:41:56;;;;;;;6.43;4.37;;;;;;;;;;4980447;28;20408;-54
2022/01/29 14:44:23;;;;;;;5.60;4.47;;;;;;;;;;4980636;28;20405;-53
2022/01/29 14:46:49;;;;;;;5.57;4.40;;;;;;;;;;4980618;28;20398;-53
2022/01/29 14:49:16;;;;;;;6.60;4.60;;;;;;;;;;4980784;28;20421;-53